<?xml version="1.0" encoding="UTF-8" standalone="no" ?>
<gpx xmlns="http://www.topografix.com/GPX/1/1" xmlns:xsi="http://www.w3.org/2001/XMLSchema-instance" xsi:schemaLocation="http://www.topografix.com/GPX/1/1 http://www.topografix.com/GPX/1/1/gpx.xsd" version="1.1" creator="VisuGPX - https://www.visugpx.com">
  <metadata>
    <name>Lac du Der - Parcours vélo</name>
  </metadata>
  <trk>
    <name><![CDATA[2022-08-24 14:25:18]]></name>
    <trkseg>
      <trkpt lat="48.55259" lon="4.76973">
        <ele>146.15</ele>
        <time>2022-08-24T08:11:42Z</time>
      </trkpt>
      <trkpt lat="48.55255" lon="4.76983">
        <ele>145.6</ele>
        <time>2022-08-24T08:12:19Z</time>
      </trkpt>
      <trkpt lat="48.55251" lon="4.76982">
        <ele>145.68</ele>
        <time>2022-08-24T08:12:21Z</time>
      </trkpt>
      <trkpt lat="48.5522" lon="4.77005">
        <ele>145.66</ele>
        <time>2022-08-24T08:12:35Z</time>
      </trkpt>
      <trkpt lat="48.55198" lon="4.77034">
        <ele>145.89</ele>
        <time>2022-08-24T08:12:48Z</time>
      </trkpt>
      <trkpt lat="48.55188" lon="4.77076">
        <ele>146.12</ele>
        <time>2022-08-24T08:13:02Z</time>
      </trkpt>
      <trkpt lat="48.55189" lon="4.77107">
        <ele>145.99</ele>
        <time>2022-08-24T08:13:13Z</time>
      </trkpt>
      <trkpt lat="48.55197" lon="4.77133">
        <ele>146.26</ele>
        <time>2022-08-24T08:13:23Z</time>
      </trkpt>
      <trkpt lat="48.55222" lon="4.77113">
        <ele>146.31</ele>
        <time>2022-08-24T08:13:34Z</time>
      </trkpt>
      <trkpt lat="48.55226" lon="4.77111">
        <ele>146.21</ele>
        <time>2022-08-24T08:13:36Z</time>
      </trkpt>
      <trkpt lat="48.55231" lon="4.77147">
        <ele>145.78</ele>
        <time>2022-08-24T08:13:48Z</time>
      </trkpt>
      <trkpt lat="48.55216" lon="4.77192">
        <ele>145.96</ele>
        <time>2022-08-24T08:14:02Z</time>
      </trkpt>
      <trkpt lat="48.55216" lon="4.77248">
        <ele>145.64</ele>
        <time>2022-08-24T08:14:16Z</time>
      </trkpt>
      <trkpt lat="48.55214" lon="4.773">
        <ele>145.44</ele>
        <time>2022-08-24T08:14:30Z</time>
      </trkpt>
      <trkpt lat="48.55214" lon="4.77309">
        <ele>145.49</ele>
        <time>2022-08-24T08:14:33Z</time>
      </trkpt>
      <trkpt lat="48.55229" lon="4.77339">
        <ele>145.32</ele>
        <time>2022-08-24T08:14:45Z</time>
      </trkpt>
      <trkpt lat="48.55247" lon="4.77373">
        <ele>145.42</ele>
        <time>2022-08-24T08:14:59Z</time>
      </trkpt>
      <trkpt lat="48.55261" lon="4.77411">
        <ele>144.8</ele>
        <time>2022-08-24T08:15:12Z</time>
      </trkpt>
      <trkpt lat="48.55268" lon="4.77464">
        <ele>145.33</ele>
        <time>2022-08-24T08:15:27Z</time>
      </trkpt>
      <trkpt lat="48.55277" lon="4.77501">
        <ele>145.14</ele>
        <time>2022-08-24T08:15:39Z</time>
      </trkpt>
      <trkpt lat="48.55308" lon="4.77516">
        <ele>144.35</ele>
        <time>2022-08-24T08:15:52Z</time>
      </trkpt>
      <trkpt lat="48.55331" lon="4.77568">
        <ele>145.22</ele>
        <time>2022-08-24T08:16:07Z</time>
      </trkpt>
      <trkpt lat="48.55343" lon="4.77602">
        <ele>145.5</ele>
        <time>2022-08-24T08:16:18Z</time>
      </trkpt>
      <trkpt lat="48.5537" lon="4.77644">
        <ele>145.91</ele>
        <time>2022-08-24T08:16:33Z</time>
      </trkpt>
      <trkpt lat="48.55367" lon="4.77695">
        <ele>145.93</ele>
        <time>2022-08-24T08:16:45Z</time>
      </trkpt>
      <trkpt lat="48.55361" lon="4.77755">
        <ele>146.12</ele>
        <time>2022-08-24T08:17:00Z</time>
      </trkpt>
      <trkpt lat="48.55342" lon="4.77818">
        <ele>146.16</ele>
        <time>2022-08-24T08:17:16Z</time>
      </trkpt>
      <trkpt lat="48.55319" lon="4.77861">
        <ele>145.75</ele>
        <time>2022-08-24T08:17:29Z</time>
      </trkpt>
      <trkpt lat="48.55314" lon="4.77909">
        <ele>145.32</ele>
        <time>2022-08-24T08:17:40Z</time>
      </trkpt>
      <trkpt lat="48.55335" lon="4.77969">
        <ele>145.13</ele>
        <time>2022-08-24T08:17:55Z</time>
      </trkpt>
      <trkpt lat="48.55351" lon="4.78028">
        <ele>145.6</ele>
        <time>2022-08-24T08:18:11Z</time>
      </trkpt>
      <trkpt lat="48.5537" lon="4.78078">
        <ele>144.83</ele>
        <time>2022-08-24T08:18:26Z</time>
      </trkpt>
      <trkpt lat="48.55387" lon="4.7814">
        <ele>145.15</ele>
        <time>2022-08-24T08:18:42Z</time>
      </trkpt>
      <trkpt lat="48.55405" lon="4.78225">
        <ele>145.19</ele>
        <time>2022-08-24T08:19:03Z</time>
      </trkpt>
      <trkpt lat="48.5542" lon="4.78295">
        <ele>145.2</ele>
        <time>2022-08-24T08:19:20Z</time>
      </trkpt>
      <trkpt lat="48.55438" lon="4.78376">
        <ele>145.34</ele>
        <time>2022-08-24T08:19:39Z</time>
      </trkpt>
      <trkpt lat="48.55454" lon="4.78444">
        <ele>145.36</ele>
        <time>2022-08-24T08:19:56Z</time>
      </trkpt>
      <trkpt lat="48.55468" lon="4.78507">
        <ele>145.35</ele>
        <time>2022-08-24T08:20:12Z</time>
      </trkpt>
      <trkpt lat="48.55488" lon="4.78596">
        <ele>145.36</ele>
        <time>2022-08-24T08:20:34Z</time>
      </trkpt>
      <trkpt lat="48.55504" lon="4.78672">
        <ele>145.67</ele>
        <time>2022-08-24T08:20:52Z</time>
      </trkpt>
      <trkpt lat="48.55526" lon="4.78766">
        <ele>145.64</ele>
        <time>2022-08-24T08:21:14Z</time>
      </trkpt>
      <trkpt lat="48.55541" lon="4.78832">
        <ele>145.1</ele>
        <time>2022-08-24T08:21:30Z</time>
      </trkpt>
      <trkpt lat="48.55564" lon="4.7887">
        <ele>144.62</ele>
        <time>2022-08-24T08:21:43Z</time>
      </trkpt>
      <trkpt lat="48.556" lon="4.7891">
        <ele>146.75</ele>
        <time>2022-08-24T08:21:59Z</time>
      </trkpt>
      <trkpt lat="48.5563" lon="4.78945">
        <ele>148.68</ele>
        <time>2022-08-24T08:22:14Z</time>
      </trkpt>
      <trkpt lat="48.55672" lon="4.78995">
        <ele>149.61</ele>
        <time>2022-08-24T08:22:32Z</time>
      </trkpt>
      <trkpt lat="48.55703" lon="4.79037">
        <ele>148.91</ele>
        <time>2022-08-24T08:22:46Z</time>
      </trkpt>
      <trkpt lat="48.55697" lon="4.79066">
        <ele>148.39</ele>
        <time>2022-08-24T08:22:52Z</time>
      </trkpt>
      <trkpt lat="48.55658" lon="4.79112">
        <ele>147.95</ele>
        <time>2022-08-24T08:23:08Z</time>
      </trkpt>
      <trkpt lat="48.55618" lon="4.79164">
        <ele>147.32</ele>
        <time>2022-08-24T08:23:23Z</time>
      </trkpt>
      <trkpt lat="48.55576" lon="4.79206">
        <ele>146.52</ele>
        <time>2022-08-24T08:23:37Z</time>
      </trkpt>
      <trkpt lat="48.55566" lon="4.79213">
        <ele>146.52</ele>
        <time>2022-08-24T08:23:40Z</time>
      </trkpt>
      <trkpt lat="48.55503" lon="4.79241">
        <ele>146.52</ele>
        <time>2022-08-24T08:23:57Z</time>
      </trkpt>
      <trkpt lat="48.55439" lon="4.79248">
        <ele>146.54</ele>
        <time>2022-08-24T08:24:16Z</time>
      </trkpt>
      <trkpt lat="48.55389" lon="4.7925">
        <ele>146.82</ele>
        <time>2022-08-24T08:24:31Z</time>
      </trkpt>
      <trkpt lat="48.55325" lon="4.79267">
        <ele>147.15</ele>
        <time>2022-08-24T08:24:50Z</time>
      </trkpt>
      <trkpt lat="48.55278" lon="4.79291">
        <ele>147.01</ele>
        <time>2022-08-24T08:25:05Z</time>
      </trkpt>
      <trkpt lat="48.5524" lon="4.79331">
        <ele>147.13</ele>
        <time>2022-08-24T08:25:21Z</time>
      </trkpt>
      <trkpt lat="48.55194" lon="4.79375">
        <ele>147.78</ele>
        <time>2022-08-24T08:25:37Z</time>
      </trkpt>
      <trkpt lat="48.5515" lon="4.79423">
        <ele>148.4</ele>
        <time>2022-08-24T08:25:53Z</time>
      </trkpt>
      <trkpt lat="48.55098" lon="4.79474">
        <ele>148.38</ele>
        <time>2022-08-24T08:26:09Z</time>
      </trkpt>
      <trkpt lat="48.5506" lon="4.79521">
        <ele>148.1</ele>
        <time>2022-08-24T08:26:21Z</time>
      </trkpt>
      <trkpt lat="48.55011" lon="4.79602">
        <ele>147.68</ele>
        <time>2022-08-24T08:26:39Z</time>
      </trkpt>
      <trkpt lat="48.5497" lon="4.79676">
        <ele>146.83</ele>
        <time>2022-08-24T08:26:54Z</time>
      </trkpt>
      <trkpt lat="48.54931" lon="4.7974">
        <ele>145.68</ele>
        <time>2022-08-24T08:27:06Z</time>
      </trkpt>
      <trkpt lat="48.54873" lon="4.7984">
        <ele>145.25</ele>
        <time>2022-08-24T08:27:25Z</time>
      </trkpt>
      <trkpt lat="48.54819" lon="4.79909">
        <ele>146.48</ele>
        <time>2022-08-24T08:27:43Z</time>
      </trkpt>
      <trkpt lat="48.54803" lon="4.79916">
        <ele>147.14</ele>
        <time>2022-08-24T08:27:49Z</time>
      </trkpt>
      <trkpt lat="48.54806" lon="4.79932">
        <ele>147.29</ele>
        <time>2022-08-24T08:27:57Z</time>
      </trkpt>
      <trkpt lat="48.54806" lon="4.79973">
        <ele>148.22</ele>
        <time>2022-08-24T08:28:14Z</time>
      </trkpt>
      <trkpt lat="48.54797" lon="4.80007">
        <ele>149.21</ele>
        <time>2022-08-24T08:28:28Z</time>
      </trkpt>
      <trkpt lat="48.5478" lon="4.80057">
        <ele>150.47</ele>
        <time>2022-08-24T08:28:46Z</time>
      </trkpt>
      <trkpt lat="48.54765" lon="4.801">
        <ele>151.89</ele>
        <time>2022-08-24T08:29:01Z</time>
      </trkpt>
      <trkpt lat="48.54742" lon="4.8017">
        <ele>153.38</ele>
        <time>2022-08-24T08:29:22Z</time>
      </trkpt>
      <trkpt lat="48.54717" lon="4.80246">
        <ele>153.32</ele>
        <time>2022-08-24T08:29:42Z</time>
      </trkpt>
      <trkpt lat="48.54685" lon="4.80343">
        <ele>153.24</ele>
        <time>2022-08-24T08:30:03Z</time>
      </trkpt>
      <trkpt lat="48.54652" lon="4.80444">
        <ele>154.62</ele>
        <time>2022-08-24T08:30:27Z</time>
      </trkpt>
      <trkpt lat="48.54628" lon="4.80517">
        <ele>155.01</ele>
        <time>2022-08-24T08:30:44Z</time>
      </trkpt>
      <trkpt lat="48.54599" lon="4.80604">
        <ele>155.19</ele>
        <time>2022-08-24T08:31:06Z</time>
      </trkpt>
      <trkpt lat="48.54567" lon="4.80704">
        <ele>154.89</ele>
        <time>2022-08-24T08:31:29Z</time>
      </trkpt>
      <trkpt lat="48.5453" lon="4.80818">
        <ele>154.8</ele>
        <time>2022-08-24T08:31:55Z</time>
      </trkpt>
      <trkpt lat="48.54503" lon="4.80904">
        <ele>154.91</ele>
        <time>2022-08-24T08:32:16Z</time>
      </trkpt>
      <trkpt lat="48.54495" lon="4.80936">
        <ele>155.51</ele>
        <time>2022-08-24T08:32:29Z</time>
      </trkpt>
      <trkpt lat="48.54493" lon="4.80947">
        <ele>155.08</ele>
        <time>2022-08-24T08:35:34Z</time>
      </trkpt>
      <trkpt lat="48.54481" lon="4.80989">
        <ele>155.23</ele>
        <time>2022-08-24T08:35:47Z</time>
      </trkpt>
      <trkpt lat="48.54466" lon="4.81045">
        <ele>155.69</ele>
        <time>2022-08-24T08:36:02Z</time>
      </trkpt>
      <trkpt lat="48.54446" lon="4.8111">
        <ele>156.87</ele>
        <time>2022-08-24T08:36:18Z</time>
      </trkpt>
      <trkpt lat="48.54424" lon="4.81181">
        <ele>157.33</ele>
        <time>2022-08-24T08:36:35Z</time>
      </trkpt>
      <trkpt lat="48.54401" lon="4.81237">
        <ele>156.71</ele>
        <time>2022-08-24T08:36:48Z</time>
      </trkpt>
      <trkpt lat="48.54374" lon="4.81299">
        <ele>155.85</ele>
        <time>2022-08-24T08:37:03Z</time>
      </trkpt>
      <trkpt lat="48.54356" lon="4.81366">
        <ele>155.48</ele>
        <time>2022-08-24T08:37:16Z</time>
      </trkpt>
      <trkpt lat="48.54342" lon="4.81435">
        <ele>155.08</ele>
        <time>2022-08-24T08:37:29Z</time>
      </trkpt>
      <trkpt lat="48.54329" lon="4.815">
        <ele>154.8</ele>
        <time>2022-08-24T08:37:42Z</time>
      </trkpt>
      <trkpt lat="48.54329" lon="4.81537">
        <ele>154.99</ele>
        <time>2022-08-24T08:37:53Z</time>
      </trkpt>
      <trkpt lat="48.54353" lon="4.81571">
        <ele>155.35</ele>
        <time>2022-08-24T08:38:09Z</time>
      </trkpt>
      <trkpt lat="48.54372" lon="4.81595">
        <ele>156.14</ele>
        <time>2022-08-24T08:38:22Z</time>
      </trkpt>
      <trkpt lat="48.54377" lon="4.81602">
        <ele>156.28</ele>
        <time>2022-08-24T08:38:26Z</time>
      </trkpt>
      <trkpt lat="48.54405" lon="4.81632">
        <ele>157.31</ele>
        <time>2022-08-24T08:38:41Z</time>
      </trkpt>
      <trkpt lat="48.54434" lon="4.81664">
        <ele>158.22</ele>
        <time>2022-08-24T08:38:55Z</time>
      </trkpt>
      <trkpt lat="48.54459" lon="4.81696">
        <ele>159.17</ele>
        <time>2022-08-24T08:39:10Z</time>
      </trkpt>
      <trkpt lat="48.54489" lon="4.81724">
        <ele>159.74</ele>
        <time>2022-08-24T08:39:22Z</time>
      </trkpt>
      <trkpt lat="48.54524" lon="4.81757">
        <ele>159.94</ele>
        <time>2022-08-24T08:39:34Z</time>
      </trkpt>
      <trkpt lat="48.54572" lon="4.81798">
        <ele>159.63</ele>
        <time>2022-08-24T08:39:50Z</time>
      </trkpt>
      <trkpt lat="48.54614" lon="4.81837">
        <ele>159.26</ele>
        <time>2022-08-24T08:40:04Z</time>
      </trkpt>
      <trkpt lat="48.54643" lon="4.81864">
        <ele>158.35</ele>
        <time>2022-08-24T08:40:15Z</time>
      </trkpt>
      <trkpt lat="48.54658" lon="4.81872">
        <ele>158.38</ele>
        <time>2022-08-24T08:40:20Z</time>
      </trkpt>
      <trkpt lat="48.54664" lon="4.8188">
        <ele>158.37</ele>
        <time>2022-08-24T08:40:26Z</time>
      </trkpt>
      <trkpt lat="48.54668" lon="4.81887">
        <ele>158.44</ele>
        <time>2022-08-24T08:40:31Z</time>
      </trkpt>
      <trkpt lat="48.54691" lon="4.81871">
        <ele>157.64</ele>
        <time>2022-08-24T08:40:45Z</time>
      </trkpt>
      <trkpt lat="48.54713" lon="4.81883">
        <ele>156.74</ele>
        <time>2022-08-24T08:40:58Z</time>
      </trkpt>
      <trkpt lat="48.54717" lon="4.81885">
        <ele>156.76</ele>
        <time>2022-08-24T08:41:06Z</time>
      </trkpt>
      <trkpt lat="48.54724" lon="4.81893">
        <ele>156.42</ele>
        <time>2022-08-24T08:41:17Z</time>
      </trkpt>
      <trkpt lat="48.5474" lon="4.81918">
        <ele>155.99</ele>
        <time>2022-08-24T08:41:29Z</time>
      </trkpt>
      <trkpt lat="48.54769" lon="4.81973">
        <ele>154.64</ele>
        <time>2022-08-24T08:41:44Z</time>
      </trkpt>
      <trkpt lat="48.54796" lon="4.82016">
        <ele>153.71</ele>
        <time>2022-08-24T08:41:55Z</time>
      </trkpt>
      <trkpt lat="48.54819" lon="4.82063">
        <ele>152.67</ele>
        <time>2022-08-24T08:42:05Z</time>
      </trkpt>
      <trkpt lat="48.54857" lon="4.82127">
        <ele>151.68</ele>
        <time>2022-08-24T08:42:20Z</time>
      </trkpt>
      <trkpt lat="48.54894" lon="4.82183">
        <ele>151.08</ele>
        <time>2022-08-24T08:42:35Z</time>
      </trkpt>
      <trkpt lat="48.54916" lon="4.82194">
        <ele>150.2</ele>
        <time>2022-08-24T08:42:46Z</time>
      </trkpt>
      <trkpt lat="48.54963" lon="4.82219">
        <ele>148.89</ele>
        <time>2022-08-24T08:43:01Z</time>
      </trkpt>
      <trkpt lat="48.55" lon="4.82229">
        <ele>148.89</ele>
        <time>2022-08-24T08:43:14Z</time>
      </trkpt>
      <trkpt lat="48.55039" lon="4.82236">
        <ele>149.5</ele>
        <time>2022-08-24T08:43:29Z</time>
      </trkpt>
      <trkpt lat="48.55077" lon="4.82239">
        <ele>150.72</ele>
        <time>2022-08-24T08:43:45Z</time>
      </trkpt>
      <trkpt lat="48.55119" lon="4.82252">
        <ele>152.03</ele>
        <time>2022-08-24T08:43:59Z</time>
      </trkpt>
      <trkpt lat="48.5517" lon="4.82276">
        <ele>153.15</ele>
        <time>2022-08-24T08:44:12Z</time>
      </trkpt>
      <trkpt lat="48.55228" lon="4.82298">
        <ele>153.8</ele>
        <time>2022-08-24T08:44:28Z</time>
      </trkpt>
      <trkpt lat="48.55273" lon="4.82311">
        <ele>153.73</ele>
        <time>2022-08-24T08:44:42Z</time>
      </trkpt>
      <trkpt lat="48.55305" lon="4.82326">
        <ele>153.3</ele>
        <time>2022-08-24T08:44:56Z</time>
      </trkpt>
      <trkpt lat="48.55352" lon="4.82364">
        <ele>152.68</ele>
        <time>2022-08-24T08:45:10Z</time>
      </trkpt>
      <trkpt lat="48.55403" lon="4.82413">
        <ele>151.89</ele>
        <time>2022-08-24T08:45:21Z</time>
      </trkpt>
      <trkpt lat="48.55431" lon="4.82469">
        <ele>150.66</ele>
        <time>2022-08-24T08:45:29Z</time>
      </trkpt>
      <trkpt lat="48.55461" lon="4.8256">
        <ele>150.72</ele>
        <time>2022-08-24T08:45:43Z</time>
      </trkpt>
      <trkpt lat="48.55473" lon="4.82623">
        <ele>151.66</ele>
        <time>2022-08-24T08:45:57Z</time>
      </trkpt>
      <trkpt lat="48.5549" lon="4.82692">
        <ele>152.89</ele>
        <time>2022-08-24T08:46:11Z</time>
      </trkpt>
      <trkpt lat="48.55506" lon="4.82757">
        <ele>154.26</ele>
        <time>2022-08-24T08:46:25Z</time>
      </trkpt>
      <trkpt lat="48.55523" lon="4.82825">
        <ele>155.68</ele>
        <time>2022-08-24T08:46:41Z</time>
      </trkpt>
      <trkpt lat="48.55536" lon="4.82882">
        <ele>156.67</ele>
        <time>2022-08-24T08:46:55Z</time>
      </trkpt>
      <trkpt lat="48.55548" lon="4.82951">
        <ele>156.38</ele>
        <time>2022-08-24T08:47:09Z</time>
      </trkpt>
      <trkpt lat="48.55558" lon="4.83032">
        <ele>153.15</ele>
        <time>2022-08-24T08:47:19Z</time>
      </trkpt>
      <trkpt lat="48.55561" lon="4.83041">
        <ele>152.9</ele>
        <time>2022-08-24T08:47:20Z</time>
      </trkpt>
      <trkpt lat="48.55585" lon="4.83148">
        <ele>149.76</ele>
        <time>2022-08-24T08:47:30Z</time>
      </trkpt>
      <trkpt lat="48.55612" lon="4.83281">
        <ele>147.27</ele>
        <time>2022-08-24T08:47:42Z</time>
      </trkpt>
      <trkpt lat="48.55635" lon="4.83395">
        <ele>146.89</ele>
        <time>2022-08-24T08:47:54Z</time>
      </trkpt>
      <trkpt lat="48.55642" lon="4.83422">
        <ele>147.53</ele>
        <time>2022-08-24T08:47:58Z</time>
      </trkpt>
      <trkpt lat="48.55647" lon="4.83447">
        <ele>147.86</ele>
        <time>2022-08-24T08:48:02Z</time>
      </trkpt>
      <trkpt lat="48.55665" lon="4.83523">
        <ele>148.5</ele>
        <time>2022-08-24T08:48:18Z</time>
      </trkpt>
      <trkpt lat="48.55683" lon="4.83601">
        <ele>149.52</ele>
        <time>2022-08-24T08:48:34Z</time>
      </trkpt>
      <trkpt lat="48.55695" lon="4.83661">
        <ele>150.61</ele>
        <time>2022-08-24T08:48:47Z</time>
      </trkpt>
      <trkpt lat="48.5571" lon="4.83723">
        <ele>151.9</ele>
        <time>2022-08-24T08:49:00Z</time>
      </trkpt>
      <trkpt lat="48.5573" lon="4.8379">
        <ele>153.46</ele>
        <time>2022-08-24T08:49:13Z</time>
      </trkpt>
      <trkpt lat="48.55743" lon="4.83851">
        <ele>154.88</ele>
        <time>2022-08-24T08:49:26Z</time>
      </trkpt>
      <trkpt lat="48.55762" lon="4.83912">
        <ele>156.29</ele>
        <time>2022-08-24T08:49:38Z</time>
      </trkpt>
      <trkpt lat="48.55769" lon="4.83946">
        <ele>157.73</ele>
        <time>2022-08-24T08:49:51Z</time>
      </trkpt>
      <trkpt lat="48.55769" lon="4.83945">
        <ele>157.54</ele>
        <time>2022-08-24T08:49:54Z</time>
      </trkpt>
      <trkpt lat="48.55772" lon="4.83962">
        <ele>157.66</ele>
        <time>2022-08-24T08:57:02Z</time>
      </trkpt>
      <trkpt lat="48.55787" lon="4.83987">
        <ele>158.63</ele>
        <time>2022-08-24T08:57:18Z</time>
      </trkpt>
      <trkpt lat="48.55808" lon="4.84005">
        <ele>159.14</ele>
        <time>2022-08-24T08:57:30Z</time>
      </trkpt>
      <trkpt lat="48.55835" lon="4.84026">
        <ele>159.08</ele>
        <time>2022-08-24T08:57:46Z</time>
      </trkpt>
      <trkpt lat="48.55872" lon="4.84054">
        <ele>157.61</ele>
        <time>2022-08-24T08:57:58Z</time>
      </trkpt>
      <trkpt lat="48.55922" lon="4.84087">
        <ele>156.23</ele>
        <time>2022-08-24T08:58:10Z</time>
      </trkpt>
      <trkpt lat="48.56" lon="4.84134">
        <ele>153.7</ele>
        <time>2022-08-24T08:58:26Z</time>
      </trkpt>
      <trkpt lat="48.56049" lon="4.84168">
        <ele>153.27</ele>
        <time>2022-08-24T08:58:40Z</time>
      </trkpt>
      <trkpt lat="48.56096" lon="4.84198">
        <ele>153.42</ele>
        <time>2022-08-24T08:58:53Z</time>
      </trkpt>
      <trkpt lat="48.56158" lon="4.84235">
        <ele>153.21</ele>
        <time>2022-08-24T08:59:10Z</time>
      </trkpt>
      <trkpt lat="48.56217" lon="4.84275">
        <ele>151.98</ele>
        <time>2022-08-24T08:59:26Z</time>
      </trkpt>
      <trkpt lat="48.56276" lon="4.84316">
        <ele>151.67</ele>
        <time>2022-08-24T08:59:41Z</time>
      </trkpt>
      <trkpt lat="48.56325" lon="4.84348">
        <ele>151.43</ele>
        <time>2022-08-24T08:59:54Z</time>
      </trkpt>
      <trkpt lat="48.56378" lon="4.84384">
        <ele>151.25</ele>
        <time>2022-08-24T09:00:09Z</time>
      </trkpt>
      <trkpt lat="48.56431" lon="4.84415">
        <ele>150.57</ele>
        <time>2022-08-24T09:00:24Z</time>
      </trkpt>
      <trkpt lat="48.56481" lon="4.84449">
        <ele>149.07</ele>
        <time>2022-08-24T09:00:38Z</time>
      </trkpt>
      <trkpt lat="48.56536" lon="4.84485">
        <ele>147.89</ele>
        <time>2022-08-24T09:00:53Z</time>
      </trkpt>
      <trkpt lat="48.56583" lon="4.84516">
        <ele>147.45</ele>
        <time>2022-08-24T09:01:07Z</time>
      </trkpt>
      <trkpt lat="48.56647" lon="4.84558">
        <ele>146.79</ele>
        <time>2022-08-24T09:01:24Z</time>
      </trkpt>
      <trkpt lat="48.56709" lon="4.84599">
        <ele>146.79</ele>
        <time>2022-08-24T09:01:41Z</time>
      </trkpt>
      <trkpt lat="48.56757" lon="4.84629">
        <ele>146.88</ele>
        <time>2022-08-24T09:01:57Z</time>
      </trkpt>
      <trkpt lat="48.568" lon="4.84664">
        <ele>146.19</ele>
        <time>2022-08-24T09:02:13Z</time>
      </trkpt>
      <trkpt lat="48.56852" lon="4.84693">
        <ele>145.91</ele>
        <time>2022-08-24T09:02:27Z</time>
      </trkpt>
      <trkpt lat="48.56899" lon="4.84726">
        <ele>146.06</ele>
        <time>2022-08-24T09:02:42Z</time>
      </trkpt>
      <trkpt lat="48.56947" lon="4.84756">
        <ele>146.41</ele>
        <time>2022-08-24T09:02:59Z</time>
      </trkpt>
      <trkpt lat="48.5699" lon="4.84786">
        <ele>146.17</ele>
        <time>2022-08-24T09:03:14Z</time>
      </trkpt>
      <trkpt lat="48.57043" lon="4.84821">
        <ele>146.21</ele>
        <time>2022-08-24T09:03:34Z</time>
      </trkpt>
      <trkpt lat="48.57078" lon="4.84827">
        <ele>146.46</ele>
        <time>2022-08-24T09:03:49Z</time>
      </trkpt>
      <trkpt lat="48.5709" lon="4.84809">
        <ele>146.8</ele>
        <time>2022-08-24T09:03:58Z</time>
      </trkpt>
      <trkpt lat="48.57097" lon="4.84809">
        <ele>147.01</ele>
        <time>2022-08-24T09:04:02Z</time>
      </trkpt>
      <trkpt lat="48.5712" lon="4.84824">
        <ele>147.88</ele>
        <time>2022-08-24T09:04:17Z</time>
      </trkpt>
      <trkpt lat="48.57153" lon="4.8485">
        <ele>148.4</ele>
        <time>2022-08-24T09:04:33Z</time>
      </trkpt>
      <trkpt lat="48.57183" lon="4.84875">
        <ele>147.74</ele>
        <time>2022-08-24T09:04:49Z</time>
      </trkpt>
      <trkpt lat="48.572" lon="4.84894">
        <ele>147.78</ele>
        <time>2022-08-24T09:05:02Z</time>
      </trkpt>
      <trkpt lat="48.57221" lon="4.84909">
        <ele>147.1</ele>
        <time>2022-08-24T09:05:14Z</time>
      </trkpt>
      <trkpt lat="48.57246" lon="4.84929">
        <ele>146.59</ele>
        <time>2022-08-24T09:05:23Z</time>
      </trkpt>
      <trkpt lat="48.57249" lon="4.84947">
        <ele>146.93</ele>
        <time>2022-08-24T09:05:28Z</time>
      </trkpt>
      <trkpt lat="48.57252" lon="4.84953">
        <ele>146.92</ele>
        <time>2022-08-24T09:05:30Z</time>
      </trkpt>
      <trkpt lat="48.57265" lon="4.84966">
        <ele>146.73</ele>
        <time>2022-08-24T09:05:37Z</time>
      </trkpt>
      <trkpt lat="48.57301" lon="4.84992">
        <ele>146.64</ele>
        <time>2022-08-24T09:05:53Z</time>
      </trkpt>
      <trkpt lat="48.57335" lon="4.85015">
        <ele>146.54</ele>
        <time>2022-08-24T09:06:10Z</time>
      </trkpt>
      <trkpt lat="48.57369" lon="4.85034">
        <ele>146.37</ele>
        <time>2022-08-24T09:06:24Z</time>
      </trkpt>
      <trkpt lat="48.57405" lon="4.85059">
        <ele>146.35</ele>
        <time>2022-08-24T09:06:39Z</time>
      </trkpt>
      <trkpt lat="48.57442" lon="4.85083">
        <ele>146.45</ele>
        <time>2022-08-24T09:06:53Z</time>
      </trkpt>
      <trkpt lat="48.57482" lon="4.85109">
        <ele>146.65</ele>
        <time>2022-08-24T09:07:08Z</time>
      </trkpt>
      <trkpt lat="48.57525" lon="4.85138">
        <ele>146.98</ele>
        <time>2022-08-24T09:07:25Z</time>
      </trkpt>
      <trkpt lat="48.57578" lon="4.85174">
        <ele>146.82</ele>
        <time>2022-08-24T09:07:44Z</time>
      </trkpt>
      <trkpt lat="48.5763" lon="4.85207">
        <ele>146.57</ele>
        <time>2022-08-24T09:08:00Z</time>
      </trkpt>
      <trkpt lat="48.57681" lon="4.85236">
        <ele>147.34</ele>
        <time>2022-08-24T09:08:18Z</time>
      </trkpt>
      <trkpt lat="48.57719" lon="4.85256">
        <ele>148.22</ele>
        <time>2022-08-24T09:08:31Z</time>
      </trkpt>
      <trkpt lat="48.57762" lon="4.85274">
        <ele>147.3</ele>
        <time>2022-08-24T09:08:46Z</time>
      </trkpt>
      <trkpt lat="48.5779" lon="4.85278">
        <ele>144.36</ele>
        <time>2022-08-24T09:08:57Z</time>
      </trkpt>
      <trkpt lat="48.57789" lon="4.85264">
        <ele>144.5</ele>
        <time>2022-08-24T09:09:01Z</time>
      </trkpt>
      <trkpt lat="48.57784" lon="4.8522">
        <ele>145.18</ele>
        <time>2022-08-24T09:09:14Z</time>
      </trkpt>
      <trkpt lat="48.57779" lon="4.85171">
        <ele>146.02</ele>
        <time>2022-08-24T09:09:28Z</time>
      </trkpt>
      <trkpt lat="48.5779" lon="4.8514">
        <ele>145.65</ele>
        <time>2022-08-24T09:09:40Z</time>
      </trkpt>
      <trkpt lat="48.57805" lon="4.85096">
        <ele>145.71</ele>
        <time>2022-08-24T09:09:53Z</time>
      </trkpt>
      <trkpt lat="48.57809" lon="4.85071">
        <ele>146.67</ele>
        <time>2022-08-24T09:10:07Z</time>
      </trkpt>
      <trkpt lat="48.57816" lon="4.85056">
        <ele>147.58</ele>
        <time>2022-08-24T09:10:22Z</time>
      </trkpt>
      <trkpt lat="48.57826" lon="4.85027">
        <ele>147.28</ele>
        <time>2022-08-24T09:10:47Z</time>
      </trkpt>
      <trkpt lat="48.5783" lon="4.85023">
        <ele>146.51</ele>
        <time>2022-08-24T09:10:59Z</time>
      </trkpt>
      <trkpt lat="48.57833" lon="4.8502">
        <ele>146.3</ele>
        <time>2022-08-24T09:20:25Z</time>
      </trkpt>
      <trkpt lat="48.57862" lon="4.85037">
        <ele>146.45</ele>
        <time>2022-08-24T09:20:41Z</time>
      </trkpt>
      <trkpt lat="48.57903" lon="4.85062">
        <ele>146.34</ele>
        <time>2022-08-24T09:20:58Z</time>
      </trkpt>
      <trkpt lat="48.57942" lon="4.85083">
        <ele>146.24</ele>
        <time>2022-08-24T09:21:13Z</time>
      </trkpt>
      <trkpt lat="48.57977" lon="4.85104">
        <ele>146.23</ele>
        <time>2022-08-24T09:21:27Z</time>
      </trkpt>
      <trkpt lat="48.58011" lon="4.85125">
        <ele>146.35</ele>
        <time>2022-08-24T09:21:41Z</time>
      </trkpt>
      <trkpt lat="48.58057" lon="4.85152">
        <ele>146.21</ele>
        <time>2022-08-24T09:21:59Z</time>
      </trkpt>
      <trkpt lat="48.581" lon="4.85178">
        <ele>146.3</ele>
        <time>2022-08-24T09:22:15Z</time>
      </trkpt>
      <trkpt lat="48.58146" lon="4.85206">
        <ele>146.34</ele>
        <time>2022-08-24T09:22:31Z</time>
      </trkpt>
      <trkpt lat="48.582" lon="4.85236">
        <ele>146.32</ele>
        <time>2022-08-24T09:22:48Z</time>
      </trkpt>
      <trkpt lat="48.5825" lon="4.85267">
        <ele>146.43</ele>
        <time>2022-08-24T09:23:04Z</time>
      </trkpt>
      <trkpt lat="48.58306" lon="4.85299">
        <ele>146.53</ele>
        <time>2022-08-24T09:23:21Z</time>
      </trkpt>
      <trkpt lat="48.58357" lon="4.8533">
        <ele>146.24</ele>
        <time>2022-08-24T09:23:38Z</time>
      </trkpt>
      <trkpt lat="48.58418" lon="4.85365">
        <ele>146.24</ele>
        <time>2022-08-24T09:23:57Z</time>
      </trkpt>
      <trkpt lat="48.5847" lon="4.85395">
        <ele>146.3</ele>
        <time>2022-08-24T09:24:13Z</time>
      </trkpt>
      <trkpt lat="48.58524" lon="4.85428">
        <ele>146.4</ele>
        <time>2022-08-24T09:24:30Z</time>
      </trkpt>
      <trkpt lat="48.58567" lon="4.85453">
        <ele>145.88</ele>
        <time>2022-08-24T09:24:44Z</time>
      </trkpt>
      <trkpt lat="48.58613" lon="4.85479">
        <ele>146.09</ele>
        <time>2022-08-24T09:24:59Z</time>
      </trkpt>
      <trkpt lat="48.58661" lon="4.85508">
        <ele>146.2</ele>
        <time>2022-08-24T09:25:14Z</time>
      </trkpt>
      <trkpt lat="48.58718" lon="4.85541">
        <ele>146.35</ele>
        <time>2022-08-24T09:25:32Z</time>
      </trkpt>
      <trkpt lat="48.58766" lon="4.85572">
        <ele>146.34</ele>
        <time>2022-08-24T09:25:47Z</time>
      </trkpt>
      <trkpt lat="48.58827" lon="4.85607">
        <ele>146.46</ele>
        <time>2022-08-24T09:26:05Z</time>
      </trkpt>
      <trkpt lat="48.58881" lon="4.85638">
        <ele>146.54</ele>
        <time>2022-08-24T09:26:21Z</time>
      </trkpt>
      <trkpt lat="48.58941" lon="4.85674">
        <ele>146.48</ele>
        <time>2022-08-24T09:26:39Z</time>
      </trkpt>
      <trkpt lat="48.58994" lon="4.85704">
        <ele>146.4</ele>
        <time>2022-08-24T09:26:55Z</time>
      </trkpt>
      <trkpt lat="48.59053" lon="4.85739">
        <ele>146.57</ele>
        <time>2022-08-24T09:27:13Z</time>
      </trkpt>
      <trkpt lat="48.59103" lon="4.85769">
        <ele>146.66</ele>
        <time>2022-08-24T09:27:29Z</time>
      </trkpt>
      <trkpt lat="48.59153" lon="4.85799">
        <ele>146.36</ele>
        <time>2022-08-24T09:27:45Z</time>
      </trkpt>
      <trkpt lat="48.59198" lon="4.85823">
        <ele>146.47</ele>
        <time>2022-08-24T09:28:00Z</time>
      </trkpt>
      <trkpt lat="48.59241" lon="4.85838">
        <ele>146.99</ele>
        <time>2022-08-24T09:28:15Z</time>
      </trkpt>
      <trkpt lat="48.59249" lon="4.85841">
        <ele>147.87</ele>
        <time>2022-08-24T09:28:26Z</time>
      </trkpt>
      <trkpt lat="48.59249" lon="4.85848">
        <ele>147.98</ele>
        <time>2022-08-24T09:28:38Z</time>
      </trkpt>
      <trkpt lat="48.59238" lon="4.85893">
        <ele>147.73</ele>
        <time>2022-08-24T09:28:51Z</time>
      </trkpt>
      <trkpt lat="48.59215" lon="4.85978">
        <ele>146.55</ele>
        <time>2022-08-24T09:29:07Z</time>
      </trkpt>
      <trkpt lat="48.59189" lon="4.86059">
        <ele>143.19</ele>
        <time>2022-08-24T09:29:17Z</time>
      </trkpt>
      <trkpt lat="48.59148" lon="4.86168">
        <ele>140.35</ele>
        <time>2022-08-24T09:29:31Z</time>
      </trkpt>
      <trkpt lat="48.59115" lon="4.86254">
        <ele>140.54</ele>
        <time>2022-08-24T09:29:48Z</time>
      </trkpt>
      <trkpt lat="48.59074" lon="4.86335">
        <ele>140.69</ele>
        <time>2022-08-24T09:30:07Z</time>
      </trkpt>
      <trkpt lat="48.59038" lon="4.86395">
        <ele>140.32</ele>
        <time>2022-08-24T09:30:23Z</time>
      </trkpt>
      <trkpt lat="48.59026" lon="4.86427">
        <ele>140.36</ele>
        <time>2022-08-24T09:30:32Z</time>
      </trkpt>
      <trkpt lat="48.58998" lon="4.8645">
        <ele>141.31</ele>
        <time>2022-08-24T09:30:44Z</time>
      </trkpt>
      <trkpt lat="48.59002" lon="4.8647">
        <ele>141.39</ele>
        <time>2022-08-24T09:30:51Z</time>
      </trkpt>
      <trkpt lat="48.5902" lon="4.86516">
        <ele>141.93</ele>
        <time>2022-08-24T09:31:05Z</time>
      </trkpt>
      <trkpt lat="48.5902" lon="4.8652">
        <ele>141.94</ele>
        <time>2022-08-24T09:31:06Z</time>
      </trkpt>
      <trkpt lat="48.59012" lon="4.86539">
        <ele>141.93</ele>
        <time>2022-08-24T09:31:19Z</time>
      </trkpt>
      <trkpt lat="48.5901" lon="4.86548">
        <ele>141.83</ele>
        <time>2022-08-24T09:31:34Z</time>
      </trkpt>
      <trkpt lat="48.59018" lon="4.86562">
        <ele>141.96</ele>
        <time>2022-08-24T09:31:40Z</time>
      </trkpt>
      <trkpt lat="48.5902" lon="4.86568">
        <ele>142.17</ele>
        <time>2022-08-24T09:31:48Z</time>
      </trkpt>
      <trkpt lat="48.59021" lon="4.86577">
        <ele>142.21</ele>
        <time>2022-08-24T09:32:08Z</time>
      </trkpt>
      <trkpt lat="48.59006" lon="4.86604">
        <ele>142.49</ele>
        <time>2022-08-24T09:32:21Z</time>
      </trkpt>
      <trkpt lat="48.59005" lon="4.86604">
        <ele>142.09</ele>
        <time>2022-08-24T09:32:26Z</time>
      </trkpt>
      <trkpt lat="48.5901" lon="4.86608">
        <ele>142.58</ele>
        <time>2022-08-24T09:39:19Z</time>
      </trkpt>
      <trkpt lat="48.59022" lon="4.86588">
        <ele>142.37</ele>
        <time>2022-08-24T09:39:29Z</time>
      </trkpt>
      <trkpt lat="48.59038" lon="4.86563">
        <ele>142.08</ele>
        <time>2022-08-24T09:39:44Z</time>
      </trkpt>
      <trkpt lat="48.59045" lon="4.86554">
        <ele>142</ele>
        <time>2022-08-24T09:39:55Z</time>
      </trkpt>
      <trkpt lat="48.5903" lon="4.86546">
        <ele>142</ele>
        <time>2022-08-24T09:40:27Z</time>
      </trkpt>
      <trkpt lat="48.59021" lon="4.86553">
        <ele>141.87</ele>
        <time>2022-08-24T09:40:34Z</time>
      </trkpt>
      <trkpt lat="48.59013" lon="4.86543">
        <ele>141.92</ele>
        <time>2022-08-24T09:40:39Z</time>
      </trkpt>
      <trkpt lat="48.59018" lon="4.8653">
        <ele>142.14</ele>
        <time>2022-08-24T09:40:44Z</time>
      </trkpt>
      <trkpt lat="48.5902" lon="4.86526">
        <ele>142.23</ele>
        <time>2022-08-24T09:40:46Z</time>
      </trkpt>
      <trkpt lat="48.59018" lon="4.86512">
        <ele>142.16</ele>
        <time>2022-08-24T09:40:50Z</time>
      </trkpt>
      <trkpt lat="48.59" lon="4.86468">
        <ele>142.5</ele>
        <time>2022-08-24T09:41:05Z</time>
      </trkpt>
      <trkpt lat="48.58996" lon="4.86458">
        <ele>142.34</ele>
        <time>2022-08-24T09:41:08Z</time>
      </trkpt>
      <trkpt lat="48.58997" lon="4.86451">
        <ele>142.07</ele>
        <time>2022-08-24T09:41:12Z</time>
      </trkpt>
      <trkpt lat="48.59031" lon="4.86427">
        <ele>141.52</ele>
        <time>2022-08-24T09:41:26Z</time>
      </trkpt>
      <trkpt lat="48.59047" lon="4.86394">
        <ele>141</ele>
        <time>2022-08-24T09:41:38Z</time>
      </trkpt>
      <trkpt lat="48.59071" lon="4.86352">
        <ele>141.54</ele>
        <time>2022-08-24T09:41:50Z</time>
      </trkpt>
      <trkpt lat="48.59105" lon="4.863">
        <ele>141.11</ele>
        <time>2022-08-24T09:42:06Z</time>
      </trkpt>
      <trkpt lat="48.59124" lon="4.86246">
        <ele>141.25</ele>
        <time>2022-08-24T09:42:18Z</time>
      </trkpt>
      <trkpt lat="48.5916" lon="4.8615">
        <ele>141.04</ele>
        <time>2022-08-24T09:42:38Z</time>
      </trkpt>
      <trkpt lat="48.59186" lon="4.86077">
        <ele>142.55</ele>
        <time>2022-08-24T09:42:55Z</time>
      </trkpt>
      <trkpt lat="48.59206" lon="4.86025">
        <ele>144.42</ele>
        <time>2022-08-24T09:43:10Z</time>
      </trkpt>
      <trkpt lat="48.59222" lon="4.8597">
        <ele>146.73</ele>
        <time>2022-08-24T09:43:25Z</time>
      </trkpt>
      <trkpt lat="48.59237" lon="4.85911">
        <ele>148.54</ele>
        <time>2022-08-24T09:43:41Z</time>
      </trkpt>
      <trkpt lat="48.5925" lon="4.85859">
        <ele>148.83</ele>
        <time>2022-08-24T09:43:56Z</time>
      </trkpt>
      <trkpt lat="48.59255" lon="4.85844">
        <ele>148.93</ele>
        <time>2022-08-24T09:44:01Z</time>
      </trkpt>
      <trkpt lat="48.59256" lon="4.85842">
        <ele>148.82</ele>
        <time>2022-08-24T09:44:09Z</time>
      </trkpt>
      <trkpt lat="48.59252" lon="4.85836">
        <ele>148.76</ele>
        <time>2022-08-24T09:44:51Z</time>
      </trkpt>
      <trkpt lat="48.59215" lon="4.8583">
        <ele>147.04</ele>
        <time>2022-08-24T09:45:04Z</time>
      </trkpt>
      <trkpt lat="48.59173" lon="4.85807">
        <ele>147.46</ele>
        <time>2022-08-24T09:45:19Z</time>
      </trkpt>
      <trkpt lat="48.59134" lon="4.85784">
        <ele>147.19</ele>
        <time>2022-08-24T09:45:33Z</time>
      </trkpt>
      <trkpt lat="48.59079" lon="4.85752">
        <ele>147.5</ele>
        <time>2022-08-24T09:45:52Z</time>
      </trkpt>
      <trkpt lat="48.59034" lon="4.85727">
        <ele>147.79</ele>
        <time>2022-08-24T09:46:07Z</time>
      </trkpt>
      <trkpt lat="48.58976" lon="4.85692">
        <ele>147.8</ele>
        <time>2022-08-24T09:46:26Z</time>
      </trkpt>
      <trkpt lat="48.58914" lon="4.85656">
        <ele>147.56</ele>
        <time>2022-08-24T09:46:46Z</time>
      </trkpt>
      <trkpt lat="48.58868" lon="4.85627">
        <ele>147.61</ele>
        <time>2022-08-24T09:47:01Z</time>
      </trkpt>
      <trkpt lat="48.58812" lon="4.85595">
        <ele>147.56</ele>
        <time>2022-08-24T09:47:19Z</time>
      </trkpt>
      <trkpt lat="48.58751" lon="4.85559">
        <ele>147.43</ele>
        <time>2022-08-24T09:47:39Z</time>
      </trkpt>
      <trkpt lat="48.587" lon="4.85529">
        <ele>147.36</ele>
        <time>2022-08-24T09:47:55Z</time>
      </trkpt>
      <trkpt lat="48.58644" lon="4.85496">
        <ele>147.51</ele>
        <time>2022-08-24T09:48:13Z</time>
      </trkpt>
      <trkpt lat="48.58574" lon="4.85455">
        <ele>147.54</ele>
        <time>2022-08-24T09:48:35Z</time>
      </trkpt>
      <trkpt lat="48.58523" lon="4.85425">
        <ele>147.42</ele>
        <time>2022-08-24T09:48:51Z</time>
      </trkpt>
      <trkpt lat="48.58467" lon="4.85392">
        <ele>147.55</ele>
        <time>2022-08-24T09:49:08Z</time>
      </trkpt>
      <trkpt lat="48.5841" lon="4.85358">
        <ele>147.84</ele>
        <time>2022-08-24T09:49:26Z</time>
      </trkpt>
      <trkpt lat="48.58354" lon="4.85325">
        <ele>147.55</ele>
        <time>2022-08-24T09:49:44Z</time>
      </trkpt>
      <trkpt lat="48.58292" lon="4.85289">
        <ele>147.42</ele>
        <time>2022-08-24T09:50:03Z</time>
      </trkpt>
      <trkpt lat="48.58228" lon="4.85251">
        <ele>147.53</ele>
        <time>2022-08-24T09:50:23Z</time>
      </trkpt>
      <trkpt lat="48.5816" lon="4.85211">
        <ele>147.87</ele>
        <time>2022-08-24T09:50:44Z</time>
      </trkpt>
      <trkpt lat="48.58101" lon="4.85176">
        <ele>147.71</ele>
        <time>2022-08-24T09:51:03Z</time>
      </trkpt>
      <trkpt lat="48.58041" lon="4.8514">
        <ele>147.85</ele>
        <time>2022-08-24T09:51:23Z</time>
      </trkpt>
      <trkpt lat="48.57999" lon="4.85116">
        <ele>147.85</ele>
        <time>2022-08-24T09:51:37Z</time>
      </trkpt>
      <trkpt lat="48.57951" lon="4.85088">
        <ele>147.76</ele>
        <time>2022-08-24T09:51:53Z</time>
      </trkpt>
      <trkpt lat="48.579" lon="4.85059">
        <ele>147.29</ele>
        <time>2022-08-24T09:52:10Z</time>
      </trkpt>
      <trkpt lat="48.5786" lon="4.85033">
        <ele>147.71</ele>
        <time>2022-08-24T09:52:26Z</time>
      </trkpt>
      <trkpt lat="48.5783" lon="4.85015">
        <ele>148.12</ele>
        <time>2022-08-24T09:52:39Z</time>
      </trkpt>
      <trkpt lat="48.57809" lon="4.85081">
        <ele>148.07</ele>
        <time>2022-08-24T09:54:24Z</time>
      </trkpt>
      <trkpt lat="48.57808" lon="4.85088">
        <ele>147.99</ele>
        <time>2022-08-24T09:54:32Z</time>
      </trkpt>
      <trkpt lat="48.57805" lon="4.85097">
        <ele>147.83</ele>
        <time>2022-08-24T09:54:39Z</time>
      </trkpt>
      <trkpt lat="48.57787" lon="4.85149">
        <ele>147.2</ele>
        <time>2022-08-24T09:54:56Z</time>
      </trkpt>
      <trkpt lat="48.57781" lon="4.8516">
        <ele>147.57</ele>
        <time>2022-08-24T09:55:01Z</time>
      </trkpt>
      <trkpt lat="48.57781" lon="4.85208">
        <ele>147.09</ele>
        <time>2022-08-24T09:55:14Z</time>
      </trkpt>
      <trkpt lat="48.57787" lon="4.85263">
        <ele>146.17</ele>
        <time>2022-08-24T09:55:26Z</time>
      </trkpt>
      <trkpt lat="48.57776" lon="4.8527">
        <ele>147.41</ele>
        <time>2022-08-24T09:55:32Z</time>
      </trkpt>
      <trkpt lat="48.57742" lon="4.85264">
        <ele>150.15</ele>
        <time>2022-08-24T09:55:48Z</time>
      </trkpt>
      <trkpt lat="48.57718" lon="4.85254">
        <ele>150.48</ele>
        <time>2022-08-24T09:56:01Z</time>
      </trkpt>
      <trkpt lat="48.57682" lon="4.85236">
        <ele>150.15</ele>
        <time>2022-08-24T09:56:16Z</time>
      </trkpt>
      <trkpt lat="48.57632" lon="4.85207">
        <ele>148.26</ele>
        <time>2022-08-24T09:56:29Z</time>
      </trkpt>
      <trkpt lat="48.57572" lon="4.85167">
        <ele>148.44</ele>
        <time>2022-08-24T09:56:45Z</time>
      </trkpt>
      <trkpt lat="48.57534" lon="4.85142">
        <ele>148.82</ele>
        <time>2022-08-24T09:57:00Z</time>
      </trkpt>
      <trkpt lat="48.57528" lon="4.85136">
        <ele>148.88</ele>
        <time>2022-08-24T09:57:10Z</time>
      </trkpt>
      <trkpt lat="48.57523" lon="4.85135">
        <ele>148.82</ele>
        <time>2022-08-24T09:57:27Z</time>
      </trkpt>
      <trkpt lat="48.57473" lon="4.85102">
        <ele>148.41</ele>
        <time>2022-08-24T09:57:43Z</time>
      </trkpt>
      <trkpt lat="48.57403" lon="4.85054">
        <ele>148.52</ele>
        <time>2022-08-24T09:58:03Z</time>
      </trkpt>
      <trkpt lat="48.57342" lon="4.85013">
        <ele>148.65</ele>
        <time>2022-08-24T09:58:20Z</time>
      </trkpt>
      <trkpt lat="48.5729" lon="4.84979">
        <ele>148.68</ele>
        <time>2022-08-24T09:58:36Z</time>
      </trkpt>
      <trkpt lat="48.57253" lon="4.84952">
        <ele>149.17</ele>
        <time>2022-08-24T09:58:50Z</time>
      </trkpt>
      <trkpt lat="48.57247" lon="4.84934">
        <ele>149.41</ele>
        <time>2022-08-24T09:59:00Z</time>
      </trkpt>
      <trkpt lat="48.57248" lon="4.84934">
        <ele>149.4</ele>
        <time>2022-08-24T09:59:03Z</time>
      </trkpt>
      <trkpt lat="48.57248" lon="4.84928">
        <ele>149.41</ele>
        <time>2022-08-24T09:59:38Z</time>
      </trkpt>
      <trkpt lat="48.57245" lon="4.84924">
        <ele>149.33</ele>
        <time>2022-08-24T09:59:40Z</time>
      </trkpt>
      <trkpt lat="48.57213" lon="4.84899">
        <ele>149.8</ele>
        <time>2022-08-24T09:59:55Z</time>
      </trkpt>
      <trkpt lat="48.57208" lon="4.84892">
        <ele>150.1</ele>
        <time>2022-08-24T10:00:03Z</time>
      </trkpt>
      <trkpt lat="48.57201" lon="4.8489">
        <ele>150.03</ele>
        <time>2022-08-24T10:00:17Z</time>
      </trkpt>
      <trkpt lat="48.57189" lon="4.84882">
        <ele>149.91</ele>
        <time>2022-08-24T10:00:23Z</time>
      </trkpt>
      <trkpt lat="48.57185" lon="4.84885">
        <ele>149.88</ele>
        <time>2022-08-24T10:00:26Z</time>
      </trkpt>
      <trkpt lat="48.57177" lon="4.84884">
        <ele>149.79</ele>
        <time>2022-08-24T10:00:30Z</time>
      </trkpt>
      <trkpt lat="48.57142" lon="4.84855">
        <ele>150.43</ele>
        <time>2022-08-24T10:00:46Z</time>
      </trkpt>
      <trkpt lat="48.57098" lon="4.8482">
        <ele>149.11</ele>
        <time>2022-08-24T10:01:01Z</time>
      </trkpt>
      <trkpt lat="48.57094" lon="4.84816">
        <ele>149.19</ele>
        <time>2022-08-24T10:01:03Z</time>
      </trkpt>
      <trkpt lat="48.5707" lon="4.84833">
        <ele>149.07</ele>
        <time>2022-08-24T10:01:13Z</time>
      </trkpt>
      <trkpt lat="48.57025" lon="4.84805">
        <ele>149.03</ele>
        <time>2022-08-24T10:01:27Z</time>
      </trkpt>
      <trkpt lat="48.56976" lon="4.84773">
        <ele>148.91</ele>
        <time>2022-08-24T10:01:44Z</time>
      </trkpt>
      <trkpt lat="48.56937" lon="4.84748">
        <ele>149.12</ele>
        <time>2022-08-24T10:01:57Z</time>
      </trkpt>
      <trkpt lat="48.56874" lon="4.84706">
        <ele>148.96</ele>
        <time>2022-08-24T10:02:16Z</time>
      </trkpt>
      <trkpt lat="48.56811" lon="4.84668">
        <ele>148.73</ele>
        <time>2022-08-24T10:02:34Z</time>
      </trkpt>
      <trkpt lat="48.56774" lon="4.8464">
        <ele>149.22</ele>
        <time>2022-08-24T10:02:46Z</time>
      </trkpt>
      <trkpt lat="48.56738" lon="4.84618">
        <ele>149.38</ele>
        <time>2022-08-24T10:02:59Z</time>
      </trkpt>
      <trkpt lat="48.56694" lon="4.84588">
        <ele>149.5</ele>
        <time>2022-08-24T10:03:13Z</time>
      </trkpt>
      <trkpt lat="48.56643" lon="4.84555">
        <ele>149.92</ele>
        <time>2022-08-24T10:03:29Z</time>
      </trkpt>
      <trkpt lat="48.56588" lon="4.84517">
        <ele>149.97</ele>
        <time>2022-08-24T10:03:46Z</time>
      </trkpt>
      <trkpt lat="48.56534" lon="4.84481">
        <ele>150.71</ele>
        <time>2022-08-24T10:04:03Z</time>
      </trkpt>
      <trkpt lat="48.56484" lon="4.84449">
        <ele>151.59</ele>
        <time>2022-08-24T10:04:19Z</time>
      </trkpt>
      <trkpt lat="48.56428" lon="4.84411">
        <ele>153.02</ele>
        <time>2022-08-24T10:04:37Z</time>
      </trkpt>
      <trkpt lat="48.56373" lon="4.84375">
        <ele>153.94</ele>
        <time>2022-08-24T10:04:54Z</time>
      </trkpt>
      <trkpt lat="48.56324" lon="4.84345">
        <ele>154.26</ele>
        <time>2022-08-24T10:05:09Z</time>
      </trkpt>
      <trkpt lat="48.56273" lon="4.84317">
        <ele>154.43</ele>
        <time>2022-08-24T10:05:24Z</time>
      </trkpt>
      <trkpt lat="48.5623" lon="4.84288">
        <ele>154.51</ele>
        <time>2022-08-24T10:05:38Z</time>
      </trkpt>
      <trkpt lat="48.5618" lon="4.84252">
        <ele>155.27</ele>
        <time>2022-08-24T10:05:54Z</time>
      </trkpt>
      <trkpt lat="48.56126" lon="4.8422">
        <ele>156.06</ele>
        <time>2022-08-24T10:06:11Z</time>
      </trkpt>
      <trkpt lat="48.56067" lon="4.84181">
        <ele>156.6</ele>
        <time>2022-08-24T10:06:29Z</time>
      </trkpt>
      <trkpt lat="48.56015" lon="4.84147">
        <ele>156.86</ele>
        <time>2022-08-24T10:06:45Z</time>
      </trkpt>
      <trkpt lat="48.55967" lon="4.84115">
        <ele>157.22</ele>
        <time>2022-08-24T10:07:00Z</time>
      </trkpt>
      <trkpt lat="48.55921" lon="4.84086">
        <ele>158.82</ele>
        <time>2022-08-24T10:07:15Z</time>
      </trkpt>
      <trkpt lat="48.5588" lon="4.84058">
        <ele>160.54</ele>
        <time>2022-08-24T10:07:29Z</time>
      </trkpt>
      <trkpt lat="48.55845" lon="4.84032">
        <ele>161.69</ele>
        <time>2022-08-24T10:07:42Z</time>
      </trkpt>
      <trkpt lat="48.55807" lon="4.84003">
        <ele>161.87</ele>
        <time>2022-08-24T10:07:56Z</time>
      </trkpt>
      <trkpt lat="48.55781" lon="4.83967">
        <ele>161.21</ele>
        <time>2022-08-24T10:08:07Z</time>
      </trkpt>
      <trkpt lat="48.55774" lon="4.83961">
        <ele>161.2</ele>
        <time>2022-08-24T10:08:17Z</time>
      </trkpt>
      <trkpt lat="48.55766" lon="4.83952">
        <ele>160.88</ele>
        <time>2022-08-24T10:08:24Z</time>
      </trkpt>
      <trkpt lat="48.55763" lon="4.83953">
        <ele>160.81</ele>
        <time>2022-08-24T10:08:31Z</time>
      </trkpt>
      <trkpt lat="48.55772" lon="4.83958">
        <ele>161.21</ele>
        <time>2022-08-24T10:13:45Z</time>
      </trkpt>
      <trkpt lat="48.55771" lon="4.83958">
        <ele>161.13</ele>
        <time>2022-08-24T10:13:50Z</time>
      </trkpt>
      <trkpt lat="48.55767" lon="4.83954">
        <ele>161.27</ele>
        <time>2022-08-24T10:14:06Z</time>
      </trkpt>
      <trkpt lat="48.55765" lon="4.83956">
        <ele>161.18</ele>
        <time>2022-08-24T10:14:11Z</time>
      </trkpt>
      <trkpt lat="48.5576" lon="4.83975">
        <ele>161.18</ele>
        <time>2022-08-24T10:16:57Z</time>
      </trkpt>
      <trkpt lat="48.55755" lon="4.83988">
        <ele>162.29</ele>
        <time>2022-08-24T10:17:13Z</time>
      </trkpt>
      <trkpt lat="48.55752" lon="4.83994">
        <ele>162.47</ele>
        <time>2022-08-24T10:17:19Z</time>
      </trkpt>
      <trkpt lat="48.55743" lon="4.84014">
        <ele>162.45</ele>
        <time>2022-08-24T10:17:38Z</time>
      </trkpt>
      <trkpt lat="48.55742" lon="4.8402">
        <ele>162.9</ele>
        <time>2022-08-24T10:17:48Z</time>
      </trkpt>
      <trkpt lat="48.55738" lon="4.84028">
        <ele>162.87</ele>
        <time>2022-08-24T10:17:54Z</time>
      </trkpt>
      <trkpt lat="48.55717" lon="4.84054">
        <ele>163.65</ele>
        <time>2022-08-24T10:18:07Z</time>
      </trkpt>
      <trkpt lat="48.55684" lon="4.84092">
        <ele>164.16</ele>
        <time>2022-08-24T10:18:23Z</time>
      </trkpt>
      <trkpt lat="48.55645" lon="4.8414">
        <ele>164.87</ele>
        <time>2022-08-24T10:18:40Z</time>
      </trkpt>
      <trkpt lat="48.55612" lon="4.84178">
        <ele>164.3</ele>
        <time>2022-08-24T10:18:53Z</time>
      </trkpt>
      <trkpt lat="48.55573" lon="4.84225">
        <ele>162.64</ele>
        <time>2022-08-24T10:19:06Z</time>
      </trkpt>
      <trkpt lat="48.55543" lon="4.84262">
        <ele>161</ele>
        <time>2022-08-24T10:19:15Z</time>
      </trkpt>
      <trkpt lat="48.55522" lon="4.84285">
        <ele>159.5</ele>
        <time>2022-08-24T10:19:20Z</time>
      </trkpt>
      <trkpt lat="48.55477" lon="4.84337">
        <ele>156.01</ele>
        <time>2022-08-24T10:19:29Z</time>
      </trkpt>
      <trkpt lat="48.55442" lon="4.84382">
        <ele>153.56</ele>
        <time>2022-08-24T10:19:35Z</time>
      </trkpt>
      <trkpt lat="48.55359" lon="4.84478">
        <ele>152.6</ele>
        <time>2022-08-24T10:19:50Z</time>
      </trkpt>
      <trkpt lat="48.55316" lon="4.8453">
        <ele>153.13</ele>
        <time>2022-08-24T10:20:02Z</time>
      </trkpt>
      <trkpt lat="48.55292" lon="4.84567">
        <ele>155.14</ele>
        <time>2022-08-24T10:20:13Z</time>
      </trkpt>
      <trkpt lat="48.55259" lon="4.84604">
        <ele>157.07</ele>
        <time>2022-08-24T10:20:27Z</time>
      </trkpt>
      <trkpt lat="48.55225" lon="4.84651">
        <ele>158.7</ele>
        <time>2022-08-24T10:20:42Z</time>
      </trkpt>
      <trkpt lat="48.55212" lon="4.8466">
        <ele>159.29</ele>
        <time>2022-08-24T10:20:48Z</time>
      </trkpt>
      <trkpt lat="48.55206" lon="4.84657">
        <ele>159.01</ele>
        <time>2022-08-24T10:20:56Z</time>
      </trkpt>
      <trkpt lat="48.55197" lon="4.84653">
        <ele>159.13</ele>
        <time>2022-08-24T10:22:18Z</time>
      </trkpt>
      <trkpt lat="48.55168" lon="4.84633">
        <ele>158.8</ele>
        <time>2022-08-24T10:22:32Z</time>
      </trkpt>
      <trkpt lat="48.55131" lon="4.84606">
        <ele>158.53</ele>
        <time>2022-08-24T10:22:46Z</time>
      </trkpt>
      <trkpt lat="48.55107" lon="4.84592">
        <ele>157.54</ele>
        <time>2022-08-24T10:22:53Z</time>
      </trkpt>
      <trkpt lat="48.55043" lon="4.84549">
        <ele>154.31</ele>
        <time>2022-08-24T10:23:07Z</time>
      </trkpt>
      <trkpt lat="48.55005" lon="4.84525">
        <ele>154.69</ele>
        <time>2022-08-24T10:23:18Z</time>
      </trkpt>
      <trkpt lat="48.54973" lon="4.84504">
        <ele>156.51</ele>
        <time>2022-08-24T10:23:30Z</time>
      </trkpt>
      <trkpt lat="48.54927" lon="4.84482">
        <ele>157.62</ele>
        <time>2022-08-24T10:23:46Z</time>
      </trkpt>
      <trkpt lat="48.54895" lon="4.84466">
        <ele>157.62</ele>
        <time>2022-08-24T10:23:57Z</time>
      </trkpt>
      <trkpt lat="48.54866" lon="4.84442">
        <ele>157.61</ele>
        <time>2022-08-24T10:24:08Z</time>
      </trkpt>
      <trkpt lat="48.54833" lon="4.84421">
        <ele>158.03</ele>
        <time>2022-08-24T10:24:22Z</time>
      </trkpt>
      <trkpt lat="48.54825" lon="4.84414">
        <ele>158.38</ele>
        <time>2022-08-24T10:24:34Z</time>
      </trkpt>
      <trkpt lat="48.5481" lon="4.84403">
        <ele>159.27</ele>
        <time>2022-08-24T10:24:49Z</time>
      </trkpt>
      <trkpt lat="48.5481" lon="4.84402">
        <ele>159.39</ele>
        <time>2022-08-24T10:24:50Z</time>
      </trkpt>
      <trkpt lat="48.54791" lon="4.84392">
        <ele>160.88</ele>
        <time>2022-08-24T10:25:09Z</time>
      </trkpt>
      <trkpt lat="48.54775" lon="4.84381">
        <ele>162.43</ele>
        <time>2022-08-24T10:25:26Z</time>
      </trkpt>
      <trkpt lat="48.54762" lon="4.84369">
        <ele>163.62</ele>
        <time>2022-08-24T10:25:41Z</time>
      </trkpt>
      <trkpt lat="48.54747" lon="4.84359">
        <ele>164.47</ele>
        <time>2022-08-24T10:25:57Z</time>
      </trkpt>
      <trkpt lat="48.54731" lon="4.84345">
        <ele>165.4</ele>
        <time>2022-08-24T10:26:14Z</time>
      </trkpt>
      <trkpt lat="48.54705" lon="4.84326">
        <ele>166.32</ele>
        <time>2022-08-24T10:26:40Z</time>
      </trkpt>
      <trkpt lat="48.54679" lon="4.84309">
        <ele>167.43</ele>
        <time>2022-08-24T10:27:07Z</time>
      </trkpt>
      <trkpt lat="48.5466" lon="4.84303">
        <ele>168.06</ele>
        <time>2022-08-24T10:27:30Z</time>
      </trkpt>
      <trkpt lat="48.54651" lon="4.84294">
        <ele>168.74</ele>
        <time>2022-08-24T10:27:46Z</time>
      </trkpt>
      <trkpt lat="48.5462" lon="4.8427">
        <ele>170.71</ele>
        <time>2022-08-24T10:29:10Z</time>
      </trkpt>
      <trkpt lat="48.54586" lon="4.84257">
        <ele>172.62</ele>
        <time>2022-08-24T10:29:41Z</time>
      </trkpt>
      <trkpt lat="48.54557" lon="4.84238">
        <ele>173.61</ele>
        <time>2022-08-24T10:30:10Z</time>
      </trkpt>
      <trkpt lat="48.54537" lon="4.84227">
        <ele>174.4</ele>
        <time>2022-08-24T10:30:33Z</time>
      </trkpt>
      <trkpt lat="48.54529" lon="4.84237">
        <ele>174.54</ele>
        <time>2022-08-24T10:31:48Z</time>
      </trkpt>
      <trkpt lat="48.54523" lon="4.84243">
        <ele>174.57</ele>
        <time>2022-08-24T10:31:59Z</time>
      </trkpt>
      <trkpt lat="48.54524" lon="4.84232">
        <ele>174.74</ele>
        <time>2022-08-24T10:34:10Z</time>
      </trkpt>
      <trkpt lat="48.54527" lon="4.8424">
        <ele>174.82</ele>
        <time>2022-08-24T10:34:18Z</time>
      </trkpt>
      <trkpt lat="48.54524" lon="4.8422">
        <ele>175.61</ele>
        <time>2022-08-24T10:35:07Z</time>
      </trkpt>
      <trkpt lat="48.54518" lon="4.84213">
        <ele>175.38</ele>
        <time>2022-08-24T10:35:12Z</time>
      </trkpt>
      <trkpt lat="48.54496" lon="4.84192">
        <ele>174.74</ele>
        <time>2022-08-24T10:35:26Z</time>
      </trkpt>
      <trkpt lat="48.54476" lon="4.84178">
        <ele>174.54</ele>
        <time>2022-08-24T10:35:38Z</time>
      </trkpt>
      <trkpt lat="48.54444" lon="4.84156">
        <ele>174.09</ele>
        <time>2022-08-24T10:35:53Z</time>
      </trkpt>
      <trkpt lat="48.54407" lon="4.84131">
        <ele>173.65</ele>
        <time>2022-08-24T10:36:08Z</time>
      </trkpt>
      <trkpt lat="48.54379" lon="4.84113">
        <ele>173.57</ele>
        <time>2022-08-24T10:36:21Z</time>
      </trkpt>
      <trkpt lat="48.54352" lon="4.84097">
        <ele>173.62</ele>
        <time>2022-08-24T10:36:35Z</time>
      </trkpt>
      <trkpt lat="48.54315" lon="4.84076">
        <ele>173.65</ele>
        <time>2022-08-24T10:36:49Z</time>
      </trkpt>
      <trkpt lat="48.54279" lon="4.84052">
        <ele>173.86</ele>
        <time>2022-08-24T10:37:04Z</time>
      </trkpt>
      <trkpt lat="48.54242" lon="4.84027">
        <ele>174.75</ele>
        <time>2022-08-24T10:37:21Z</time>
      </trkpt>
      <trkpt lat="48.54206" lon="4.84004">
        <ele>175.17</ele>
        <time>2022-08-24T10:37:38Z</time>
      </trkpt>
      <trkpt lat="48.54172" lon="4.8398">
        <ele>175.75</ele>
        <time>2022-08-24T10:37:55Z</time>
      </trkpt>
      <trkpt lat="48.5414" lon="4.83962">
        <ele>176.52</ele>
        <time>2022-08-24T10:38:11Z</time>
      </trkpt>
      <trkpt lat="48.5412" lon="4.83968">
        <ele>177.1</ele>
        <time>2022-08-24T10:38:22Z</time>
      </trkpt>
      <trkpt lat="48.54097" lon="4.83999">
        <ele>177.48</ele>
        <time>2022-08-24T10:38:36Z</time>
      </trkpt>
      <trkpt lat="48.54077" lon="4.84036">
        <ele>176.86</ele>
        <time>2022-08-24T10:38:50Z</time>
      </trkpt>
      <trkpt lat="48.54049" lon="4.84086">
        <ele>176</ele>
        <time>2022-08-24T10:39:04Z</time>
      </trkpt>
      <trkpt lat="48.54032" lon="4.84114">
        <ele>175.03</ele>
        <time>2022-08-24T10:39:11Z</time>
      </trkpt>
      <trkpt lat="48.53991" lon="4.84178">
        <ele>172.68</ele>
        <time>2022-08-24T10:39:27Z</time>
      </trkpt>
      <trkpt lat="48.53956" lon="4.84233">
        <ele>170.77</ele>
        <time>2022-08-24T10:39:41Z</time>
      </trkpt>
      <trkpt lat="48.5393" lon="4.84273">
        <ele>171.01</ele>
        <time>2022-08-24T10:39:54Z</time>
      </trkpt>
      <trkpt lat="48.53897" lon="4.8432">
        <ele>171.73</ele>
        <time>2022-08-24T10:40:10Z</time>
      </trkpt>
      <trkpt lat="48.53872" lon="4.84322">
        <ele>170.85</ele>
        <time>2022-08-24T10:40:22Z</time>
      </trkpt>
      <trkpt lat="48.53826" lon="4.84323">
        <ele>170.19</ele>
        <time>2022-08-24T10:40:36Z</time>
      </trkpt>
      <trkpt lat="48.53792" lon="4.84323">
        <ele>170.4</ele>
        <time>2022-08-24T10:40:50Z</time>
      </trkpt>
      <trkpt lat="48.53764" lon="4.84325">
        <ele>171.51</ele>
        <time>2022-08-24T10:41:03Z</time>
      </trkpt>
      <trkpt lat="48.5373" lon="4.84328">
        <ele>172.37</ele>
        <time>2022-08-24T10:41:17Z</time>
      </trkpt>
      <trkpt lat="48.53698" lon="4.8433">
        <ele>172.37</ele>
        <time>2022-08-24T10:41:29Z</time>
      </trkpt>
      <trkpt lat="48.53698" lon="4.84333">
        <ele>172.57</ele>
        <time>2022-08-24T10:41:35Z</time>
      </trkpt>
      <trkpt lat="48.53689" lon="4.84331">
        <ele>172.5</ele>
        <time>2022-08-24T10:41:40Z</time>
      </trkpt>
      <trkpt lat="48.53651" lon="4.84336">
        <ele>171.77</ele>
        <time>2022-08-24T10:41:54Z</time>
      </trkpt>
      <trkpt lat="48.536" lon="4.84336">
        <ele>171.29</ele>
        <time>2022-08-24T10:42:09Z</time>
      </trkpt>
      <trkpt lat="48.53563" lon="4.84339">
        <ele>172.32</ele>
        <time>2022-08-24T10:42:23Z</time>
      </trkpt>
      <trkpt lat="48.53525" lon="4.8434">
        <ele>173.79</ele>
        <time>2022-08-24T10:42:38Z</time>
      </trkpt>
      <trkpt lat="48.53483" lon="4.84341">
        <ele>174.2</ele>
        <time>2022-08-24T10:42:54Z</time>
      </trkpt>
      <trkpt lat="48.53433" lon="4.84342">
        <ele>173.9</ele>
        <time>2022-08-24T10:43:10Z</time>
      </trkpt>
      <trkpt lat="48.53392" lon="4.84344">
        <ele>173.51</ele>
        <time>2022-08-24T10:43:24Z</time>
      </trkpt>
      <trkpt lat="48.53351" lon="4.84346">
        <ele>174.11</ele>
        <time>2022-08-24T10:43:39Z</time>
      </trkpt>
      <trkpt lat="48.5331" lon="4.8435">
        <ele>173.68</ele>
        <time>2022-08-24T10:43:54Z</time>
      </trkpt>
      <trkpt lat="48.53262" lon="4.84348">
        <ele>172.74</ele>
        <time>2022-08-24T10:44:09Z</time>
      </trkpt>
      <trkpt lat="48.53226" lon="4.84349">
        <ele>172.73</ele>
        <time>2022-08-24T10:44:22Z</time>
      </trkpt>
      <trkpt lat="48.53184" lon="4.84348">
        <ele>172.45</ele>
        <time>2022-08-24T10:44:36Z</time>
      </trkpt>
      <trkpt lat="48.53146" lon="4.84352">
        <ele>172.09</ele>
        <time>2022-08-24T10:44:51Z</time>
      </trkpt>
      <trkpt lat="48.53102" lon="4.84356">
        <ele>170.57</ele>
        <time>2022-08-24T10:45:05Z</time>
      </trkpt>
      <trkpt lat="48.53045" lon="4.84361">
        <ele>167.46</ele>
        <time>2022-08-24T10:45:16Z</time>
      </trkpt>
      <trkpt lat="48.53006" lon="4.84366">
        <ele>170.56</ele>
        <time>2022-08-24T10:45:26Z</time>
      </trkpt>
      <trkpt lat="48.52966" lon="4.8437">
        <ele>173.6</ele>
        <time>2022-08-24T10:45:40Z</time>
      </trkpt>
      <trkpt lat="48.52933" lon="4.84372">
        <ele>174.73</ele>
        <time>2022-08-24T10:45:53Z</time>
      </trkpt>
      <trkpt lat="48.52888" lon="4.84376">
        <ele>175.37</ele>
        <time>2022-08-24T10:46:07Z</time>
      </trkpt>
      <trkpt lat="48.52857" lon="4.84376">
        <ele>175.36</ele>
        <time>2022-08-24T10:46:19Z</time>
      </trkpt>
      <trkpt lat="48.52816" lon="4.84379">
        <ele>174.75</ele>
        <time>2022-08-24T10:46:34Z</time>
      </trkpt>
      <trkpt lat="48.52812" lon="4.84381">
        <ele>174.69</ele>
        <time>2022-08-24T10:46:36Z</time>
      </trkpt>
      <trkpt lat="48.52806" lon="4.84384">
        <ele>174.21</ele>
        <time>2022-08-24T10:46:43Z</time>
      </trkpt>
      <trkpt lat="48.52785" lon="4.84384">
        <ele>173.74</ele>
        <time>2022-08-24T10:46:53Z</time>
      </trkpt>
      <trkpt lat="48.52779" lon="4.84387">
        <ele>173.66</ele>
        <time>2022-08-24T10:46:56Z</time>
      </trkpt>
      <trkpt lat="48.52776" lon="4.84394">
        <ele>173.39</ele>
        <time>2022-08-24T10:47:08Z</time>
      </trkpt>
      <trkpt lat="48.52788" lon="4.8439">
        <ele>172.93</ele>
        <time>2022-08-24T10:50:05Z</time>
      </trkpt>
      <trkpt lat="48.52788" lon="4.84392">
        <ele>172.78</ele>
        <time>2022-08-24T10:50:10Z</time>
      </trkpt>
      <trkpt lat="48.52783" lon="4.84382">
        <ele>172.94</ele>
        <time>2022-08-24T10:50:35Z</time>
      </trkpt>
      <trkpt lat="48.52775" lon="4.84376">
        <ele>172.95</ele>
        <time>2022-08-24T10:50:52Z</time>
      </trkpt>
      <trkpt lat="48.5276" lon="4.84394">
        <ele>172.94</ele>
        <time>2022-08-24T10:51:27Z</time>
      </trkpt>
      <trkpt lat="48.52764" lon="4.844">
        <ele>172.8</ele>
        <time>2022-08-24T10:51:35Z</time>
      </trkpt>
      <trkpt lat="48.5277" lon="4.844">
        <ele>172.51</ele>
        <time>2022-08-24T10:51:47Z</time>
      </trkpt>
      <trkpt lat="48.52771" lon="4.84389">
        <ele>173.01</ele>
        <time>2022-08-24T10:53:16Z</time>
      </trkpt>
      <trkpt lat="48.52743" lon="4.84357">
        <ele>171.87</ele>
        <time>2022-08-24T10:53:31Z</time>
      </trkpt>
      <trkpt lat="48.52716" lon="4.84306">
        <ele>171.09</ele>
        <time>2022-08-24T10:53:48Z</time>
      </trkpt>
      <trkpt lat="48.52698" lon="4.84262">
        <ele>169.7</ele>
        <time>2022-08-24T10:54:01Z</time>
      </trkpt>
      <trkpt lat="48.52675" lon="4.8421">
        <ele>168.51</ele>
        <time>2022-08-24T10:54:14Z</time>
      </trkpt>
      <trkpt lat="48.52652" lon="4.84166">
        <ele>168.77</ele>
        <time>2022-08-24T10:54:28Z</time>
      </trkpt>
      <trkpt lat="48.52626" lon="4.84125">
        <ele>169.22</ele>
        <time>2022-08-24T10:54:42Z</time>
      </trkpt>
      <trkpt lat="48.52593" lon="4.84086">
        <ele>169.97</ele>
        <time>2022-08-24T10:55:00Z</time>
      </trkpt>
      <trkpt lat="48.52563" lon="4.84053">
        <ele>171.2</ele>
        <time>2022-08-24T10:55:16Z</time>
      </trkpt>
      <trkpt lat="48.52531" lon="4.84021">
        <ele>172.3</ele>
        <time>2022-08-24T10:55:32Z</time>
      </trkpt>
      <trkpt lat="48.52496" lon="4.83984">
        <ele>173.74</ele>
        <time>2022-08-24T10:55:49Z</time>
      </trkpt>
      <trkpt lat="48.52471" lon="4.83961">
        <ele>174.03</ele>
        <time>2022-08-24T10:56:04Z</time>
      </trkpt>
      <trkpt lat="48.52435" lon="4.8393">
        <ele>174.05</ele>
        <time>2022-08-24T10:56:20Z</time>
      </trkpt>
      <trkpt lat="48.52434" lon="4.83926">
        <ele>174.41</ele>
        <time>2022-08-24T10:56:29Z</time>
      </trkpt>
      <trkpt lat="48.5243" lon="4.8392">
        <ele>174.54</ele>
        <time>2022-08-24T10:57:06Z</time>
      </trkpt>
      <trkpt lat="48.52424" lon="4.83917">
        <ele>174.7</ele>
        <time>2022-08-24T10:57:15Z</time>
      </trkpt>
      <trkpt lat="48.52395" lon="4.83904">
        <ele>174.04</ele>
        <time>2022-08-24T10:57:44Z</time>
      </trkpt>
      <trkpt lat="48.5237" lon="4.83898">
        <ele>173.38</ele>
        <time>2022-08-24T10:58:06Z</time>
      </trkpt>
      <trkpt lat="48.52347" lon="4.83895">
        <ele>173.05</ele>
        <time>2022-08-24T10:58:25Z</time>
      </trkpt>
      <trkpt lat="48.52329" lon="4.83884">
        <ele>172.57</ele>
        <time>2022-08-24T10:58:41Z</time>
      </trkpt>
      <trkpt lat="48.52327" lon="4.8388">
        <ele>172.81</ele>
        <time>2022-08-24T10:58:49Z</time>
      </trkpt>
      <trkpt lat="48.52323" lon="4.83873">
        <ele>172.47</ele>
        <time>2022-08-24T10:58:53Z</time>
      </trkpt>
      <trkpt lat="48.52306" lon="4.83843">
        <ele>172.24</ele>
        <time>2022-08-24T10:59:04Z</time>
      </trkpt>
      <trkpt lat="48.52282" lon="4.83791">
        <ele>171.44</ele>
        <time>2022-08-24T10:59:18Z</time>
      </trkpt>
      <trkpt lat="48.52253" lon="4.83731">
        <ele>170.33</ele>
        <time>2022-08-24T10:59:32Z</time>
      </trkpt>
      <trkpt lat="48.52218" lon="4.83653">
        <ele>169.45</ele>
        <time>2022-08-24T10:59:49Z</time>
      </trkpt>
      <trkpt lat="48.52191" lon="4.83551">
        <ele>166.56</ele>
        <time>2022-08-24T11:00:08Z</time>
      </trkpt>
      <trkpt lat="48.52173" lon="4.83453">
        <ele>163.46</ele>
        <time>2022-08-24T11:00:24Z</time>
      </trkpt>
      <trkpt lat="48.52147" lon="4.83284">
        <ele>160.87</ele>
        <time>2022-08-24T11:00:51Z</time>
      </trkpt>
      <trkpt lat="48.52138" lon="4.83228">
        <ele>159.77</ele>
        <time>2022-08-24T11:01:04Z</time>
      </trkpt>
      <trkpt lat="48.52136" lon="4.83216">
        <ele>159.29</ele>
        <time>2022-08-24T11:01:18Z</time>
      </trkpt>
      <trkpt lat="48.52123" lon="4.83151">
        <ele>158.27</ele>
        <time>2022-08-24T11:01:30Z</time>
      </trkpt>
      <trkpt lat="48.52092" lon="4.83076">
        <ele>156.16</ele>
        <time>2022-08-24T11:01:45Z</time>
      </trkpt>
      <trkpt lat="48.52044" lon="4.83077">
        <ele>156.24</ele>
        <time>2022-08-24T11:02:00Z</time>
      </trkpt>
      <trkpt lat="48.52002" lon="4.83094">
        <ele>155.93</ele>
        <time>2022-08-24T11:02:17Z</time>
      </trkpt>
      <trkpt lat="48.51956" lon="4.83091">
        <ele>155.68</ele>
        <time>2022-08-24T11:02:35Z</time>
      </trkpt>
      <trkpt lat="48.51914" lon="4.83059">
        <ele>155.34</ele>
        <time>2022-08-24T11:02:52Z</time>
      </trkpt>
      <trkpt lat="48.5188" lon="4.83036">
        <ele>155.24</ele>
        <time>2022-08-24T11:03:07Z</time>
      </trkpt>
      <trkpt lat="48.5184" lon="4.83007">
        <ele>155.51</ele>
        <time>2022-08-24T11:03:25Z</time>
      </trkpt>
      <trkpt lat="48.51816" lon="4.82984">
        <ele>155.09</ele>
        <time>2022-08-24T11:03:39Z</time>
      </trkpt>
      <trkpt lat="48.51814" lon="4.82969">
        <ele>153.76</ele>
        <time>2022-08-24T11:03:43Z</time>
      </trkpt>
      <trkpt lat="48.51819" lon="4.82905">
        <ele>152.86</ele>
        <time>2022-08-24T11:03:56Z</time>
      </trkpt>
      <trkpt lat="48.5182" lon="4.82903">
        <ele>153</ele>
        <time>2022-08-24T11:04:03Z</time>
      </trkpt>
      <trkpt lat="48.5182" lon="4.82892">
        <ele>152.98</ele>
        <time>2022-08-24T11:05:15Z</time>
      </trkpt>
      <trkpt lat="48.51826" lon="4.82832">
        <ele>151.65</ele>
        <time>2022-08-24T11:05:29Z</time>
      </trkpt>
      <trkpt lat="48.51827" lon="4.82727">
        <ele>149.44</ele>
        <time>2022-08-24T11:05:46Z</time>
      </trkpt>
      <trkpt lat="48.51824" lon="4.82692">
        <ele>150.1</ele>
        <time>2022-08-24T11:05:53Z</time>
      </trkpt>
      <trkpt lat="48.5183" lon="4.82683">
        <ele>150.2</ele>
        <time>2022-08-24T11:06:03Z</time>
      </trkpt>
      <trkpt lat="48.51831" lon="4.82678">
        <ele>150.39</ele>
        <time>2022-08-24T11:07:34Z</time>
      </trkpt>
      <trkpt lat="48.51868" lon="4.82692">
        <ele>150.6</ele>
        <time>2022-08-24T11:07:49Z</time>
      </trkpt>
      <trkpt lat="48.51918" lon="4.82695">
        <ele>150.86</ele>
        <time>2022-08-24T11:08:06Z</time>
      </trkpt>
      <trkpt lat="48.51967" lon="4.82682">
        <ele>150.98</ele>
        <time>2022-08-24T11:08:21Z</time>
      </trkpt>
      <trkpt lat="48.52012" lon="4.82644">
        <ele>151.13</ele>
        <time>2022-08-24T11:08:36Z</time>
      </trkpt>
      <trkpt lat="48.52057" lon="4.82566">
        <ele>151.33</ele>
        <time>2022-08-24T11:08:55Z</time>
      </trkpt>
      <trkpt lat="48.52095" lon="4.82502">
        <ele>151.86</ele>
        <time>2022-08-24T11:09:11Z</time>
      </trkpt>
      <trkpt lat="48.52134" lon="4.82437">
        <ele>152.53</ele>
        <time>2022-08-24T11:09:28Z</time>
      </trkpt>
      <trkpt lat="48.52179" lon="4.82364">
        <ele>153.04</ele>
        <time>2022-08-24T11:09:47Z</time>
      </trkpt>
      <trkpt lat="48.52226" lon="4.82329">
        <ele>153.81</ele>
        <time>2022-08-24T11:10:03Z</time>
      </trkpt>
      <trkpt lat="48.52282" lon="4.82313">
        <ele>154.48</ele>
        <time>2022-08-24T11:10:21Z</time>
      </trkpt>
      <trkpt lat="48.52322" lon="4.82302">
        <ele>155.31</ele>
        <time>2022-08-24T11:10:38Z</time>
      </trkpt>
      <trkpt lat="48.52367" lon="4.82288">
        <ele>156.99</ele>
        <time>2022-08-24T11:10:57Z</time>
      </trkpt>
      <trkpt lat="48.52406" lon="4.82275">
        <ele>157.56</ele>
        <time>2022-08-24T11:11:14Z</time>
      </trkpt>
      <trkpt lat="48.52447" lon="4.82264">
        <ele>157.89</ele>
        <time>2022-08-24T11:11:32Z</time>
      </trkpt>
      <trkpt lat="48.52488" lon="4.82252">
        <ele>158.25</ele>
        <time>2022-08-24T11:11:50Z</time>
      </trkpt>
      <trkpt lat="48.52524" lon="4.82241">
        <ele>159.25</ele>
        <time>2022-08-24T11:12:06Z</time>
      </trkpt>
      <trkpt lat="48.52564" lon="4.8223">
        <ele>160.3</ele>
        <time>2022-08-24T11:12:23Z</time>
      </trkpt>
      <trkpt lat="48.52613" lon="4.82216">
        <ele>161.7</ele>
        <time>2022-08-24T11:12:43Z</time>
      </trkpt>
      <trkpt lat="48.52656" lon="4.82203">
        <ele>163.32</ele>
        <time>2022-08-24T11:13:01Z</time>
      </trkpt>
      <trkpt lat="48.527" lon="4.8219">
        <ele>165.15</ele>
        <time>2022-08-24T11:13:19Z</time>
      </trkpt>
      <trkpt lat="48.52742" lon="4.82173">
        <ele>166.76</ele>
        <time>2022-08-24T11:13:36Z</time>
      </trkpt>
      <trkpt lat="48.52779" lon="4.8214">
        <ele>167.43</ele>
        <time>2022-08-24T11:13:53Z</time>
      </trkpt>
      <trkpt lat="48.52815" lon="4.82096">
        <ele>168</ele>
        <time>2022-08-24T11:14:12Z</time>
      </trkpt>
      <trkpt lat="48.52841" lon="4.82059">
        <ele>168.86</ele>
        <time>2022-08-24T11:14:27Z</time>
      </trkpt>
      <trkpt lat="48.5287" lon="4.82028">
        <ele>169.38</ele>
        <time>2022-08-24T11:14:41Z</time>
      </trkpt>
      <trkpt lat="48.52912" lon="4.81978">
        <ele>168.09</ele>
        <time>2022-08-24T11:14:59Z</time>
      </trkpt>
      <trkpt lat="48.52969" lon="4.81911">
        <ele>165.3</ele>
        <time>2022-08-24T11:15:17Z</time>
      </trkpt>
      <trkpt lat="48.53041" lon="4.81825">
        <ele>162.63</ele>
        <time>2022-08-24T11:15:37Z</time>
      </trkpt>
      <trkpt lat="48.53115" lon="4.81736">
        <ele>160.82</ele>
        <time>2022-08-24T11:15:57Z</time>
      </trkpt>
      <trkpt lat="48.53186" lon="4.8165">
        <ele>159.32</ele>
        <time>2022-08-24T11:16:17Z</time>
      </trkpt>
      <trkpt lat="48.5319" lon="4.81644">
        <ele>159.25</ele>
        <time>2022-08-24T11:16:20Z</time>
      </trkpt>
      <trkpt lat="48.53194" lon="4.81645">
        <ele>158.64</ele>
        <time>2022-08-24T11:16:29Z</time>
      </trkpt>
    </trkseg>
  </trk>
</gpx>